sensor_id;sensor_type;location;lat;lon;timestamp;pressure;altitude;pressure_sealevel;temperature;humidity
61292;BME280;47165;42.664;23.368;2023-02-04T00:00:45;94829.47;;;3.66;62.29
61292;BME280;47165;42.664;23.368;2023-02-04T00:03:15;94831.84;;;3.72;62.82
61292;BME280;47165;42.664;23.368;2023-02-04T00:05:42;94838.44;;;3.80;62.49
61292;BME280;47165;42.664;23.368;2023-02-04T00:08:08;94830.44;;;3.88;62.43
61292;BME280;47165;42.664;23.368;2023-02-04T00:10:35;94815.91;;;3.86;62.35
61292;BME280;47165;42.664;23.368;2023-02-04T00:13:01;94826.44;;;3.79;62.43
61292;BME280;47165;42.664;23.368;2023-02-04T00:15:26;94823.19;;;3.73;63.18
61292;BME280;47165;42.664;23.368;2023-02-04T00:17:52;94814.81;;;3.66;63.79
61292;BME280;47165;42.664;23.368;2023-02-04T00:20:17;94814.97;;;3.61;63.79
61292;BME280;47165;42.664;23.368;2023-02-04T00:22:44;94824.06;;;3.47;64.68
61292;BME280;47165;42.664;23.368;2023-02-04T00:25:09;94813.63;;;3.50;64.60
61292;BME280;47165;42.664;23.368;2023-02-04T00:27:35;94810.69;;;3.60;64.20
61292;BME280;47165;42.664;23.368;2023-02-04T00:30:01;94815.72;;;3.65;64.00
61292;BME280;47165;42.664;23.368;2023-02-04T00:32:26;94804.41;;;3.69;64.09
61292;BME280;47165;42.664;23.368;2023-02-04T00:34:52;94806.13;;;3.69;64.02
61292;BME280;47165;42.664;23.368;2023-02-04T00:37:18;94812.63;;;3.54;64.05
61292;BME280;47165;42.664;23.368;2023-02-04T00:39:43;94802.75;;;3.40;65.34
61292;BME280;47165;42.664;23.368;2023-02-04T00:42:08;94806.28;;;3.37;65.40
61292;BME280;47165;42.664;23.368;2023-02-04T00:44:34;94807.00;;;3.42;64.75
61292;BME280;47165;42.664;23.368;2023-02-04T00:47:01;94806.31;;;3.36;65.22
61292;BME280;47165;42.664;23.368;2023-02-04T00:49:26;94792.59;;;3.35;65.23
61292;BME280;47165;42.664;23.368;2023-02-04T00:51:52;94805.28;;;3.41;64.77
61292;BME280;47165;42.664;23.368;2023-02-04T00:54:17;94791.16;;;3.27;65.71
61292;BME280;47165;42.664;23.368;2023-02-04T00:56:43;94788.25;;;3.36;65.61
61292;BME280;47165;42.664;23.368;2023-02-04T00:59:08;94791.59;;;3.39;65.36
61292;BME280;47165;42.664;23.368;2023-02-04T01:01:34;94793.19;;;3.43;65.25
61292;BME280;47165;42.664;23.368;2023-02-04T01:04:00;94785.75;;;3.34;65.76
61292;BME280;47165;42.664;23.368;2023-02-04T01:06:25;94785.34;;;3.20;66.20
61292;BME280;47165;42.664;23.368;2023-02-04T01:08:50;94763.31;;;3.10;66.48
61292;BME280;47165;42.664;23.368;2023-02-04T01:11:17;94773.69;;;2.80;68.26
61292;BME280;47165;42.664;23.368;2023-02-04T01:13:43;94760.84;;;2.78;67.73
61292;BME280;47165;42.664;23.368;2023-02-04T01:16:08;94740.78;;;2.88;67.69
61292;BME280;47165;42.664;23.368;2023-02-04T01:18:34;94747.28;;;3.00;67.06
61292;BME280;47165;42.664;23.368;2023-02-04T01:21:00;94756.19;;;3.18;66.86
61292;BME280;47165;42.664;23.368;2023-02-04T01:23:25;94745.66;;;3.24;66.59
61292;BME280;47165;42.664;23.368;2023-02-04T01:25:51;94746.53;;;3.23;66.41
61292;BME280;47165;42.664;23.368;2023-02-04T01:28:16;94749.13;;;3.23;66.52
61292;BME280;47165;42.664;23.368;2023-02-04T01:30:41;94738.59;;;3.29;66.53
61292;BME280;47165;42.664;23.368;2023-02-04T01:33:07;94730.66;;;3.35;66.58
61292;BME280;47165;42.664;23.368;2023-02-04T01:35:32;94724.50;;;3.39;65.81
61292;BME280;47165;42.664;23.368;2023-02-04T01:37:58;94731.56;;;3.08;66.81
61292;BME280;47165;42.664;23.368;2023-02-04T01:40:23;94709.25;;;3.07;67.09
61292;BME280;47165;42.664;23.368;2023-02-04T01:42:49;94711.63;;;3.13;66.99
61292;BME280;47165;42.664;23.368;2023-02-04T01:45:15;94697.53;;;3.23;67.12
61292;BME280;47165;42.664;23.368;2023-02-04T01:47:41;94700.09;;;3.23;66.16
61292;BME280;47165;42.664;23.368;2023-02-04T01:50:10;94707.69;;;3.28;66.19
61292;BME280;47165;42.664;23.368;2023-02-04T01:52:37;94710.00;;;3.35;66.46
61292;BME280;47165;42.664;23.368;2023-02-04T01:55:10;94700.38;;;3.40;65.87
61292;BME280;47165;42.664;23.368;2023-02-04T01:57:37;94698.69;;;3.39;65.70
61292;BME280;47165;42.664;23.368;2023-02-04T02:00:03;94700.06;;;3.50;65.17
61292;BME280;47165;42.664;23.368;2023-02-04T02:02:38;94689.56;;;3.54;65.05
61292;BME280;47165;42.664;23.368;2023-02-04T02:05:09;94698.00;;;3.59;64.92
61292;BME280;47165;42.664;23.368;2023-02-04T02:07:35;94680.13;;;3.55;64.68
61292;BME280;47165;42.664;23.368;2023-02-04T02:10:03;94688.47;;;3.61;64.36
61292;BME280;47165;42.664;23.368;2023-02-04T02:12:29;94697.31;;;3.54;64.75
61292;BME280;47165;42.664;23.368;2023-02-04T02:14:54;94691.22;;;3.57;64.64
61292;BME280;47165;42.664;23.368;2023-02-04T02:17:20;94685.97;;;3.58;64.34
61292;BME280;47165;42.664;23.368;2023-02-04T02:19:45;94673.00;;;3.61;64.32
61292;BME280;47165;42.664;23.368;2023-02-04T02:22:27;94672.03;;;3.64;64.21
61292;BME280;47165;42.664;23.368;2023-02-04T02:24:54;94674.66;;;3.62;64.37
61292;BME280;47165;42.664;23.368;2023-02-04T02:27:21;94659.91;;;3.66;63.51
61292;BME280;47165;42.664;23.368;2023-02-04T02:29:46;94649.63;;;3.65;64.15
61292;BME280;47165;42.664;23.368;2023-02-04T02:32:13;94648.06;;;3.60;63.84
61292;BME280;47165;42.664;23.368;2023-02-04T02:34:39;94630.28;;;3.02;65.79
61292;BME280;47165;42.664;23.368;2023-02-04T02:37:06;94616.44;;;3.05;65.92
61292;BME280;47165;42.664;23.368;2023-02-04T02:39:36;94598.13;;;3.13;65.64
61292;BME280;47165;42.664;23.368;2023-02-04T02:42:02;94601.41;;;3.18;65.09
61292;BME280;47165;42.664;23.368;2023-02-04T02:44:28;94598.81;;;3.18;65.08
61292;BME280;47165;42.664;23.368;2023-02-04T02:46:54;94591.75;;;3.23;64.54
61292;BME280;47165;42.664;23.368;2023-02-04T02:49:21;94582.91;;;3.30;64.55
61292;BME280;47165;42.664;23.368;2023-02-04T02:51:47;94589.75;;;3.31;64.32
61292;BME280;47165;42.664;23.368;2023-02-04T02:56:50;94588.06;;;3.30;63.86
61292;BME280;47165;42.664;23.368;2023-02-04T02:59:16;94583.34;;;3.41;63.61
61292;BME280;47165;42.664;23.368;2023-02-04T03:01:43;94593.84;;;3.37;63.60
61292;BME280;47165;42.664;23.368;2023-02-04T03:04:09;94603.25;;;3.38;63.45
61292;BME280;47165;42.664;23.368;2023-02-04T03:06:36;94606.53;;;3.43;63.14
61292;BME280;47165;42.664;23.368;2023-02-04T03:09:02;94598.09;;;3.38;63.47
61292;BME280;47165;42.664;23.368;2023-02-04T03:11:27;94584.44;;;3.11;64.17
61292;BME280;47165;42.664;23.368;2023-02-04T03:13:58;94595.66;;;2.58;66.85
61292;BME280;47165;42.664;23.368;2023-02-04T03:16:29;94606.81;;;2.58;67.67
61292;BME280;47165;42.664;23.368;2023-02-04T03:19:00;94617.25;;;2.80;66.93
61292;BME280;47165;42.664;23.368;2023-02-04T03:21:26;94601.38;;;2.93;66.32
61292;BME280;47165;42.664;23.368;2023-02-04T03:23:52;94607.28;;;2.96;65.62
61292;BME280;47165;42.664;23.368;2023-02-04T03:26:21;94591.16;;;3.15;65.20
61292;BME280;47165;42.664;23.368;2023-02-04T03:28:47;94582.78;;;3.33;64.76
61292;BME280;47165;42.664;23.368;2023-02-04T03:31:13;94588.84;;;3.32;65.04
61292;BME280;47165;42.664;23.368;2023-02-04T03:33:38;94586.63;;;3.47;64.10
61292;BME280;47165;42.664;23.368;2023-02-04T03:36:04;94582.81;;;3.57;63.56
61292;BME280;47165;42.664;23.368;2023-02-04T03:38:29;94589.41;;;3.64;62.72
61292;BME280;47165;42.664;23.368;2023-02-04T03:40:55;94584.59;;;3.78;62.00
61292;BME280;47165;42.664;23.368;2023-02-04T03:43:20;94594.34;;;3.70;62.04
61292;BME280;47165;42.664;23.368;2023-02-04T03:45:46;94568.91;;;3.61;62.14
61292;BME280;47165;42.664;23.368;2023-02-04T03:48:11;94580.44;;;3.74;62.24
61292;BME280;47165;42.664;23.368;2023-02-04T03:50:37;94568.06;;;3.82;61.56
61292;BME280;47165;42.664;23.368;2023-02-04T03:53:02;94567.84;;;3.89;61.60
61292;BME280;47165;42.664;23.368;2023-02-04T03:55:28;94565.94;;;3.94;61.71
61292;BME280;47165;42.664;23.368;2023-02-04T03:57:53;94556.41;;;3.96;61.32
61292;BME280;47165;42.664;23.368;2023-02-04T04:00:19;94551.03;;;4.00;61.24
61292;BME280;47165;42.664;23.368;2023-02-04T04:02:44;94535.72;;;3.96;60.95
61292;BME280;47165;42.664;23.368;2023-02-04T04:05:10;94523.53;;;3.99;61.42
61292;BME280;47165;42.664;23.368;2023-02-04T04:07:35;94525.41;;;3.96;60.91
61292;BME280;47165;42.664;23.368;2023-02-04T04:10:02;94512.59;;;3.93;60.89
61292;BME280;47165;42.664;23.368;2023-02-04T04:12:27;94510.78;;;3.95;61.46
61292;BME280;47165;42.664;23.368;2023-02-04T04:14:53;94505.75;;;3.92;61.39
61292;BME280;47165;42.664;23.368;2023-02-04T04:17:18;94508.09;;;3.98;61.52
61292;BME280;47165;42.664;23.368;2023-02-04T04:19:43;94506.59;;;3.92;61.73
61292;BME280;47165;42.664;23.368;2023-02-04T04:22:09;94516.97;;;3.91;61.56
61292;BME280;47165;42.664;23.368;2023-02-04T04:24:35;94501.84;;;3.81;61.78
61292;BME280;47165;42.664;23.368;2023-02-04T04:27:00;94513.34;;;3.73;62.33
61292;BME280;47165;42.664;23.368;2023-02-04T04:29:26;94515.00;;;3.75;62.23
61292;BME280;47165;42.664;23.368;2023-02-04T04:31:51;94513.19;;;3.77;62.55
61292;BME280;47165;42.664;23.368;2023-02-04T04:34:17;94520.72;;;3.83;62.37
61292;BME280;47165;42.664;23.368;2023-02-04T04:36:42;94517.59;;;3.75;62.45
61292;BME280;47165;42.664;23.368;2023-02-04T04:39:08;94514.13;;;3.75;62.18
61292;BME280;47165;42.664;23.368;2023-02-04T04:41:33;94524.00;;;3.65;63.04
61292;BME280;47165;42.664;23.368;2023-02-04T04:43:59;94532.53;;;3.67;63.08
61292;BME280;47165;42.664;23.368;2023-02-04T04:46:24;94540.28;;;3.67;63.25
61292;BME280;47165;42.664;23.368;2023-02-04T04:48:49;94536.13;;;3.63;63.38
61292;BME280;47165;42.664;23.368;2023-02-04T04:51:15;94549.19;;;3.58;63.65
61292;BME280;47165;42.664;23.368;2023-02-04T04:53:40;94544.75;;;3.62;63.62
61292;BME280;47165;42.664;23.368;2023-02-04T04:56:06;94548.00;;;3.67;63.71
61292;BME280;47165;42.664;23.368;2023-02-04T04:58:31;94538.41;;;3.71;63.50
61292;BME280;47165;42.664;23.368;2023-02-04T05:00:56;94541.44;;;3.58;63.83
61292;BME280;47165;42.664;23.368;2023-02-04T05:03:22;94542.63;;;3.50;64.54
61292;BME280;47165;42.664;23.368;2023-02-04T05:05:47;94531.13;;;3.35;64.87
61292;BME280;47165;42.664;23.368;2023-02-04T05:08:13;94550.28;;;3.53;64.89
61292;BME280;47165;42.664;23.368;2023-02-04T05:10:42;94547.69;;;3.53;64.77
61292;BME280;47165;42.664;23.368;2023-02-04T05:13:07;94533.78;;;3.57;65.35
61292;BME280;47165;42.664;23.368;2023-02-04T05:15:33;94546.53;;;3.60;65.30
61292;BME280;47165;42.664;23.368;2023-02-04T05:17:59;94556.78;;;3.63;65.47
61292;BME280;47165;42.664;23.368;2023-02-04T05:20:25;94562.00;;;3.61;65.66
61292;BME280;47165;42.664;23.368;2023-02-04T05:22:51;94562.59;;;3.68;65.91
61292;BME280;47165;42.664;23.368;2023-02-04T05:25:16;94571.06;;;3.72;65.94
61292;BME280;47165;42.664;23.368;2023-02-04T05:27:43;94558.13;;;3.73;66.01
61292;BME280;47165;42.664;23.368;2023-02-04T05:30:10;94586.44;;;3.75;66.53
61292;BME280;47165;42.664;23.368;2023-02-04T05:32:36;94590.94;;;3.70;67.13
61292;BME280;47165;42.664;23.368;2023-02-04T05:35:02;94581.56;;;3.67;67.31
61292;BME280;47165;42.664;23.368;2023-02-04T05:37:28;94589.25;;;3.45;68.14
61292;BME280;47165;42.664;23.368;2023-02-04T05:39:53;94585.94;;;3.41;67.74
61292;BME280;47165;42.664;23.368;2023-02-04T05:42:18;94588.84;;;3.32;67.85
61292;BME280;47165;42.664;23.368;2023-02-04T05:44:44;94593.91;;;3.35;67.80
61292;BME280;47165;42.664;23.368;2023-02-04T05:47:09;94596.22;;;3.43;67.43
61292;BME280;47165;42.664;23.368;2023-02-04T05:49:35;94597.09;;;3.42;67.17
61292;BME280;47165;42.664;23.368;2023-02-04T05:52:00;94601.44;;;3.65;66.19
61292;BME280;47165;42.664;23.368;2023-02-04T05:54:26;94597.13;;;3.66;65.54
61292;BME280;47165;42.664;23.368;2023-02-04T05:56:51;94591.44;;;3.79;65.18
61292;BME280;47165;42.664;23.368;2023-02-04T05:59:17;94562.03;;;3.60;64.96
61292;BME280;47165;42.664;23.368;2023-02-04T06:01:42;94566.75;;;3.72;64.38
61292;BME280;47165;42.664;23.368;2023-02-04T06:04:08;94564.75;;;3.57;63.41
61292;BME280;47165;42.664;23.368;2023-02-04T06:06:34;94598.34;;;3.79;62.55
61292;BME280;47165;42.664;23.368;2023-02-04T06:09:00;94574.56;;;3.93;62.66
61292;BME280;47165;42.664;23.368;2023-02-04T06:11:25;94573.31;;;4.03;62.45
61292;BME280;47165;42.664;23.368;2023-02-04T06:13:51;94566.88;;;3.91;62.36
61292;BME280;47165;42.664;23.368;2023-02-04T06:16:16;94563.53;;;4.11;62.33
61292;BME280;47165;42.664;23.368;2023-02-04T06:18:42;94579.28;;;4.05;61.92
61292;BME280;47165;42.664;23.368;2023-02-04T06:21:07;94581.06;;;4.03;62.45
61292;BME280;47165;42.664;23.368;2023-02-04T06:23:33;94577.84;;;3.98;62.26
61292;BME280;47165;42.664;23.368;2023-02-04T06:26:00;94584.34;;;3.85;62.30
61292;BME280;47165;42.664;23.368;2023-02-04T06:28:25;94578.97;;;3.91;61.99
61292;BME280;47165;42.664;23.368;2023-02-04T06:30:51;94589.28;;;4.14;61.25
61292;BME280;47165;42.664;23.368;2023-02-04T06:33:16;94577.19;;;3.69;62.19
61292;BME280;47165;42.664;23.368;2023-02-04T06:35:42;94583.25;;;3.68;61.58
61292;BME280;47165;42.664;23.368;2023-02-04T06:38:07;94582.63;;;4.07;60.96
61292;BME280;47165;42.664;23.368;2023-02-04T06:40:32;94589.91;;;3.97;60.66
61292;BME280;47165;42.664;23.368;2023-02-04T06:42:58;94580.97;;;4.06;60.93
61292;BME280;47165;42.664;23.368;2023-02-04T06:45:23;94593.94;;;4.05;60.88
61292;BME280;47165;42.664;23.368;2023-02-04T06:47:49;94584.09;;;4.14;59.63
61292;BME280;47165;42.664;23.368;2023-02-04T06:50:14;94582.28;;;4.38;58.86
61292;BME280;47165;42.664;23.368;2023-02-04T06:52:46;94580.84;;;4.53;58.23
61292;BME280;47165;42.664;23.368;2023-02-04T06:55:15;94576.94;;;4.43;58.22
61292;BME280;47165;42.664;23.368;2023-02-04T06:57:41;94578.09;;;4.36;58.14
61292;BME280;47165;42.664;23.368;2023-02-04T07:00:09;94573.63;;;4.17;58.56
61292;BME280;47165;42.664;23.368;2023-02-04T07:02:35;94577.69;;;4.25;58.59
61292;BME280;47165;42.664;23.368;2023-02-04T07:05:02;94549.94;;;4.50;57.47
61292;BME280;47165;42.664;23.368;2023-02-04T07:07:28;94576.41;;;4.35;57.29
61292;BME280;47165;42.664;23.368;2023-02-04T07:09:53;94571.09;;;4.38;57.18
61292;BME280;47165;42.664;23.368;2023-02-04T07:12:19;94567.75;;;4.36;57.09
61292;BME280;47165;42.664;23.368;2023-02-04T07:14:44;94551.13;;;4.63;56.82
61292;BME280;47165;42.664;23.368;2023-02-04T07:17:10;94566.41;;;4.70;56.13
61292;BME280;47165;42.664;23.368;2023-02-04T07:19:35;94548.22;;;4.92;55.90
61292;BME280;47165;42.664;23.368;2023-02-04T07:22:04;94568.38;;;4.83;56.00
61292;BME280;47165;42.664;23.368;2023-02-04T07:24:29;94576.59;;;4.73;56.51
61292;BME280;47165;42.664;23.368;2023-02-04T07:26:55;94548.81;;;4.98;55.72
61292;BME280;47165;42.664;23.368;2023-02-04T07:29:20;94546.34;;;4.95;55.65
61292;BME280;47165;42.664;23.368;2023-02-04T07:31:46;94560.63;;;4.83;55.86
61292;BME280;47165;42.664;23.368;2023-02-04T07:34:13;94541.16;;;4.95;55.63
61292;BME280;47165;42.664;23.368;2023-02-04T07:36:39;94548.88;;;4.97;55.61
61292;BME280;47165;42.664;23.368;2023-02-04T07:39:05;94554.38;;;4.89;55.43
61292;BME280;47165;42.664;23.368;2023-02-04T07:41:31;94554.84;;;4.56;56.25
61292;BME280;47165;42.664;23.368;2023-02-04T07:43:56;94555.13;;;4.91;55.36
61292;BME280;47165;42.664;23.368;2023-02-04T07:46:22;94561.34;;;4.87;55.48
61292;BME280;47165;42.664;23.368;2023-02-04T07:48:47;94555.53;;;5.02;55.37
61292;BME280;47165;42.664;23.368;2023-02-04T07:51:12;94543.69;;;5.17;54.82
61292;BME280;47165;42.664;23.368;2023-02-04T07:53:38;94543.41;;;5.23;54.61
61292;BME280;47165;42.664;23.368;2023-02-04T07:56:03;94538.50;;;5.17;54.95
61292;BME280;47165;42.664;23.368;2023-02-04T07:58:29;94554.22;;;5.33;54.28
61292;BME280;47165;42.664;23.368;2023-02-04T08:00:54;94553.28;;;4.95;55.69
61292;BME280;47165;42.664;23.368;2023-02-04T08:03:20;94546.44;;;5.33;54.54
61292;BME280;47165;42.664;23.368;2023-02-04T08:05:45;94543.59;;;5.39;54.16
61292;BME280;47165;42.664;23.368;2023-02-04T08:08:11;94530.50;;;5.42;54.00
61292;BME280;47165;42.664;23.368;2023-02-04T08:10:36;94544.75;;;5.32;54.77
61292;BME280;47165;42.664;23.368;2023-02-04T08:13:02;94542.19;;;5.51;54.09
61292;BME280;47165;42.664;23.368;2023-02-04T08:15:27;94546.97;;;5.60;53.88
61292;BME280;47165;42.664;23.368;2023-02-04T08:17:52;94540.81;;;5.63;53.46
61292;BME280;47165;42.664;23.368;2023-02-04T08:20:18;94553.19;;;5.17;55.28
61292;BME280;47165;42.664;23.368;2023-02-04T08:22:44;94546.31;;;5.36;54.54
61292;BME280;47165;42.664;23.368;2023-02-04T08:25:10;94548.00;;;5.56;54.09
61292;BME280;47165;42.664;23.368;2023-02-04T08:27:37;94554.94;;;5.56;54.20
61292;BME280;47165;42.664;23.368;2023-02-04T08:30:03;94537.31;;;5.64;54.15
61292;BME280;47165;42.664;23.368;2023-02-04T08:32:29;94550.81;;;5.52;54.71
61292;BME280;47165;42.664;23.368;2023-02-04T08:34:56;94534.03;;;5.60;54.58
61292;BME280;47165;42.664;23.368;2023-02-04T08:37:21;94534.16;;;5.76;54.16
61292;BME280;47165;42.664;23.368;2023-02-04T08:39:47;94531.63;;;5.94;53.66
61292;BME280;47165;42.664;23.368;2023-02-04T08:42:13;94514.06;;;5.62;53.47
61292;BME280;47165;42.664;23.368;2023-02-04T08:44:39;94547.84;;;5.40;54.49
61292;BME280;47165;42.664;23.368;2023-02-04T08:47:05;94529.03;;;5.16;55.78
61292;BME280;47165;42.664;23.368;2023-02-04T08:49:30;94531.72;;;5.15;55.49
61292;BME280;47165;42.664;23.368;2023-02-04T08:51:56;94525.31;;;5.23;56.48
61292;BME280;47165;42.664;23.368;2023-02-04T08:54:21;94532.75;;;5.31;55.94
61292;BME280;47165;42.664;23.368;2023-02-04T08:56:47;94540.06;;;5.40;56.19
61292;BME280;47165;42.664;23.368;2023-02-04T08:59:12;94569.47;;;5.39;56.20
61292;BME280;47165;42.664;23.368;2023-02-04T09:01:38;94532.78;;;4.90;57.69
61292;BME280;47165;42.664;23.368;2023-02-04T09:04:03;94549.69;;;5.18;57.45
61292;BME280;47165;42.664;23.368;2023-02-04T09:06:28;94540.69;;;5.27;57.08
61292;BME280;47165;42.664;23.368;2023-02-04T09:08:54;94535.94;;;5.36;56.48
61292;BME280;47165;42.664;23.368;2023-02-04T09:11:19;94524.75;;;4.96;57.37
61292;BME280;47165;42.664;23.368;2023-02-04T09:13:45;94537.28;;;5.06;57.38
61292;BME280;47165;42.664;23.368;2023-02-04T09:16:10;94529.22;;;5.32;56.64
61292;BME280;47165;42.664;23.368;2023-02-04T09:18:36;94534.06;;;5.59;56.12
61292;BME280;47165;42.664;23.368;2023-02-04T09:21:02;94520.56;;;5.71;55.03
61292;BME280;47165;42.664;23.368;2023-02-04T09:23:27;94517.78;;;5.57;54.63
61292;BME280;47165;42.664;23.368;2023-02-04T09:25:54;94517.56;;;5.61;54.79
61292;BME280;47165;42.664;23.368;2023-02-04T09:28:19;94519.03;;;5.48;54.74
61292;BME280;47165;42.664;23.368;2023-02-04T09:30:46;94511.81;;;5.55;53.99
61292;BME280;47165;42.664;23.368;2023-02-04T09:33:13;94518.25;;;5.65;54.08
61292;BME280;47165;42.664;23.368;2023-02-04T09:35:40;94512.25;;;5.64;53.71
61292;BME280;47165;42.664;23.368;2023-02-04T09:38:06;94519.88;;;5.87;53.48
61292;BME280;47165;42.664;23.368;2023-02-04T09:40:40;94492.38;;;5.65;54.84
61292;BME280;47165;42.664;23.368;2023-02-04T09:43:06;94537.94;;;5.69;55.53
61292;BME280;47165;42.664;23.368;2023-02-04T09:45:35;94493.25;;;5.26;57.76
61292;BME280;47165;42.664;23.368;2023-02-04T09:48:03;94539.00;;;4.86;60.02
61292;BME280;47165;42.664;23.368;2023-02-04T09:50:30;94521.41;;;4.94;61.00
61292;BME280;47165;42.664;23.368;2023-02-04T09:52:58;94513.00;;;5.08;60.93
61292;BME280;47165;42.664;23.368;2023-02-04T09:55:29;94510.72;;;5.41;61.38
61292;BME280;47165;42.664;23.368;2023-02-04T09:57:55;94509.44;;;5.50;60.89
61292;BME280;47165;42.664;23.368;2023-02-04T10:00:24;94497.31;;;5.32;60.73
61292;BME280;47165;42.664;23.368;2023-02-04T10:02:50;94504.97;;;5.54;61.62
61292;BME280;47165;42.664;23.368;2023-02-04T10:05:28;94489.84;;;5.44;60.41
61292;BME280;47165;42.664;23.368;2023-02-04T10:07:55;94499.16;;;5.30;60.90
61292;BME280;47165;42.664;23.368;2023-02-04T10:10:23;94488.31;;;5.40;60.81
61292;BME280;47165;42.664;23.368;2023-02-04T10:12:53;94473.09;;;5.33;60.64
61292;BME280;47165;42.664;23.368;2023-02-04T10:15:19;94494.25;;;5.42;61.05
61292;BME280;47165;42.664;23.368;2023-02-04T10:17:51;94489.06;;;5.42;60.07
61292;BME280;47165;42.664;23.368;2023-02-04T10:20:20;94483.41;;;5.34;59.87
61292;BME280;47165;42.664;23.368;2023-02-04T10:22:47;94470.66;;;5.49;59.91
61292;BME280;47165;42.664;23.368;2023-02-04T10:25:15;94478.97;;;4.98;60.88
61292;BME280;47165;42.664;23.368;2023-02-04T10:27:57;94479.28;;;5.30;60.84
61292;BME280;47165;42.664;23.368;2023-02-04T10:30:25;94483.44;;;5.14;60.90
61292;BME280;47165;42.664;23.368;2023-02-04T10:32:51;94478.44;;;5.11;61.09
61292;BME280;47165;42.664;23.368;2023-02-04T10:35:19;94475.91;;;5.09;60.51
61292;BME280;47165;42.664;23.368;2023-02-04T10:37:45;94470.28;;;5.18;60.96
61292;BME280;47165;42.664;23.368;2023-02-04T10:40:31;94474.75;;;5.35;60.10
61292;BME280;47165;42.664;23.368;2023-02-04T10:42:57;94477.94;;;5.21;61.29
61292;BME280;47165;42.664;23.368;2023-02-04T10:45:28;94475.47;;;4.79;63.80
61292;BME280;47165;42.664;23.368;2023-02-04T10:47:55;94474.69;;;4.77;65.35
61292;BME280;47165;42.664;23.368;2023-02-04T10:50:25;94459.91;;;4.80;66.15
61292;BME280;47165;42.664;23.368;2023-02-04T10:52:54;94465.38;;;4.93;65.91
61292;BME280;47165;42.664;23.368;2023-02-04T10:55:40;94463.94;;;5.07;65.14
61292;BME280;47165;42.664;23.368;2023-02-04T10:58:09;94469.69;;;5.13;65.25
61292;BME280;47165;42.664;23.368;2023-02-04T11:00:36;94457.91;;;5.06;65.19
61292;BME280;47165;42.664;23.368;2023-02-04T11:03:18;94450.38;;;4.81;67.64
61292;BME280;47165;42.664;23.368;2023-02-04T11:05:46;94443.69;;;4.56;67.16
61292;BME280;47165;42.664;23.368;2023-02-04T11:08:26;94456.81;;;4.72;67.31
61292;BME280;47165;42.664;23.368;2023-02-04T11:10:58;94438.78;;;4.90;66.79
61292;BME280;47165;42.664;23.368;2023-02-04T11:18:51;94429.59;;;5.03;64.79
61292;BME280;47165;42.664;23.368;2023-02-04T11:26:45;94426.13;;;4.83;63.78
61292;BME280;47165;42.664;23.368;2023-02-04T11:39:30;94441.75;;;4.41;66.13
61292;BME280;47165;42.664;23.368;2023-02-04T11:41:58;94442.78;;;4.57;66.25
61292;BME280;47165;42.664;23.368;2023-02-04T11:44:24;94450.41;;;5.00;65.32
61292;BME280;47165;42.664;23.368;2023-02-04T11:46:51;94439.56;;;5.31;64.28
61292;BME280;47165;42.664;23.368;2023-02-04T11:49:20;94446.81;;;5.42;63.43
61292;BME280;47165;42.664;23.368;2023-02-04T11:51:46;94455.69;;;5.36;63.42
61292;BME280;47165;42.664;23.368;2023-02-04T11:54:15;94440.03;;;5.58;64.01
61292;BME280;47165;42.664;23.368;2023-02-04T11:56:44;94443.75;;;5.34;64.39
61292;BME280;47165;42.664;23.368;2023-02-04T11:59:11;94444.38;;;5.58;63.99
61292;BME280;47165;42.664;23.368;2023-02-04T12:01:38;94437.22;;;5.44;63.88
61292;BME280;47165;42.664;23.368;2023-02-04T12:04:06;94447.50;;;5.64;63.86
61292;BME280;47165;42.664;23.368;2023-02-04T12:06:34;94433.50;;;5.69;63.40
61292;BME280;47165;42.664;23.368;2023-02-04T12:11:29;94421.34;;;5.52;63.74
61292;BME280;47165;42.664;23.368;2023-02-04T12:13:57;94435.25;;;5.68;63.66
61292;BME280;47165;42.664;23.368;2023-02-04T12:16:23;94435.28;;;4.72;66.51
61292;BME280;47165;42.664;23.368;2023-02-04T12:18:49;94422.47;;;4.69;67.04
61292;BME280;47165;42.664;23.368;2023-02-04T12:21:15;94428.22;;;4.55;68.47
61292;BME280;47165;42.664;23.368;2023-02-04T12:23:41;94420.78;;;4.88;67.06
61292;BME280;47165;42.664;23.368;2023-02-04T12:26:07;94441.44;;;5.09;67.40
61292;BME280;47165;42.664;23.368;2023-02-04T12:28:33;94420.63;;;4.91;66.81
61292;BME280;47165;42.664;23.368;2023-02-04T12:30:58;94393.91;;;4.72;67.71
61292;BME280;47165;42.664;23.368;2023-02-04T12:33:24;94415.50;;;4.90;68.44
61292;BME280;47165;42.664;23.368;2023-02-04T12:35:49;94422.88;;;5.18;67.41
61292;BME280;47165;42.664;23.368;2023-02-04T12:38:14;94435.97;;;5.15;67.82
61292;BME280;47165;42.664;23.368;2023-02-04T12:40:40;94412.41;;;5.21;67.66
61292;BME280;47165;42.664;23.368;2023-02-04T12:43:06;94419.13;;;5.25;66.97
61292;BME280;47165;42.664;23.368;2023-02-04T12:45:32;94417.97;;;5.31;67.44
61292;BME280;47165;42.664;23.368;2023-02-04T12:47:58;94410.50;;;5.43;66.46
61292;BME280;47165;42.664;23.368;2023-02-04T12:50:23;94407.63;;;5.12;66.16
61292;BME280;47165;42.664;23.368;2023-02-04T12:52:51;94383.53;;;4.92;66.61
61292;BME280;47165;42.664;23.368;2023-02-04T12:55:18;94408.00;;;4.64;67.39
61292;BME280;47165;42.664;23.368;2023-02-04T12:57:44;94430.69;;;4.97;65.55
61292;BME280;47165;42.664;23.368;2023-02-04T13:00:10;94410.59;;;4.83;64.44
61292;BME280;47165;42.664;23.368;2023-02-04T13:02:36;94417.09;;;5.13;63.85
61292;BME280;47165;42.664;23.368;2023-02-04T13:05:02;94409.53;;;5.27;63.00
61292;BME280;47165;42.664;23.368;2023-02-04T13:07:27;94408.00;;;5.23;62.34
61292;BME280;47165;42.664;23.368;2023-02-04T13:09:54;94411.84;;;5.33;62.44
61292;BME280;47165;42.664;23.368;2023-02-04T13:12:19;94421.06;;;5.39;61.33
61292;BME280;47165;42.664;23.368;2023-02-04T13:14:45;94382.47;;;4.96;62.11
61292;BME280;47165;42.664;23.368;2023-02-04T13:17:10;94427.56;;;5.10;62.43
61292;BME280;47165;42.664;23.368;2023-02-04T13:19:36;94421.78;;;5.23;62.03
61292;BME280;47165;42.664;23.368;2023-02-04T13:22:01;94428.06;;;4.99;62.56